Wetterdaten: Woche 17.10.16 - 23.10.16 (KW42)
Datum Zeit Temp. A. Feuchte A. Luftdruck Regen Wind Richtung Taupunkt Windchill Windben
17.10.2016 00:00 7,7 C 83 % 1025,1 hPa 0,0 l/m 0,0 km/h N 5,0 C 7,7 C 0,0 km/h
17.10.2016 01:00 7,4 C 83 % 1025,3 hPa 0,0 l/m 0,0 km/h N 4,8 C 7,4 C 0,8 km/h
17.10.2016 02:00 6,6 C 84 % 1025,4 hPa 0,0 l/m 0,0 km/h N 4,0 C 6,6 C 0,0 km/h
17.10.2016 03:00 6,3 C 84 % 1025,4 hPa 0,0 l/m 0,0 km/h N 3,7 C 6,3 C 0,0 km/h
17.10.2016 04:00 6,4 C 84 % 1025,4 hPa 0,0 l/m 0,0 km/h N 3,8 C 6,4 C 0,4 km/h
17.10.2016 05:00 7,2 C 83 % 1025,5 hPa 0,0 l/m 0,0 km/h N 4,5 C 7,2 C 0,8 km/h
17.10.2016 06:00 7,3 C 83 % 1025,8 hPa 0,0 l/m 0,0 km/h N 4,6 C 7,3 C 0,4 km/h
17.10.2016 07:00 7,3 C 83 % 1025,8 hPa 0,0 l/m 0,0 km/h N 4,6 C 7,3 C 0,0 km/h
17.10.2016 08:00 7,4 C 83 % 1026,2 hPa 0,0 l/m 0,0 km/h N 4,7 C 7,4 C 0,8 km/h
17.10.2016 09:00 7,7 C 83 % 1026,7 hPa 0,0 l/m 0,0 km/h N 5,0 C 7,7 C 1,2 km/h
17.10.2016 10:00 8,1 C 83 % 1027,1 hPa 0,0 l/m 0,0 km/h N 5,4 C 8,1 C 0,4 km/h
17.10.2016 11:00 8,6 C 83 % 1027,1 hPa 0,0 l/m 0,0 km/h N 5,9 C 8,6 C 1,6 km/h
17.10.2016 12:00 9,1 C 83 % 1026,9 hPa 0,0 l/m 0,1 km/h N 6,4 C 9,1 C 3,6 km/h
17.10.2016 13:00 9,3 C 83 % 1026,3 hPa 0,0 l/m 0,0 km/h N 6,6 C 9,3 C 0,8 km/h
17.10.2016 14:00 9,6 C 83 % 1025,9 hPa 0,0 l/m 0,0 km/h N 6,8 C 9,6 C 0,8 km/h
17.10.2016 15:00 9,9 C 83 % 1025,4 hPa 0,0 l/m 0,0 km/h N 7,1 C 9,9 C 0,0 km/h
17.10.2016 16:00 10,1 C 83 % 1025,0 hPa 0,0 l/m 0,0 km/h N 7,4 C 10,1 C 0,4 km/h
17.10.2016 17:00 10,4 C 83 % 1024,6 hPa 0,0 l/m 0,0 km/h N 7,6 C 10,4 C 0,4 km/h
17.10.2016 18:00 11,0 C 83 % 1024,6 hPa 0,0 l/m 0,1 km/h N 8,2 C 11,0 C 2,0 km/h
17.10.2016 19:00 11,6 C 83 % 1024,7 hPa 0,0 l/m 0,1 km/h N 8,8 C 11,6 C 3,2 km/h
17.10.2016 20:00 11,7 C 83 % 1024,6 hPa 0,0 l/m 0,1 km/h N 8,9 C 11,7 C 3,6 km/h
17.10.2016 21:00 11,7 C 83 % 1024,6 hPa 0,0 l/m 0,4 km/h N 8,9 C 11,7 C 5,6 km/h
17.10.2016 22:00 11,7 C 83 % 1024,5 hPa 0,0 l/m 0,4 km/h N 8,9 C 11,7 C 5,6 km/h
17.10.2016 23:00 11,8 C 83 % 1023,9 hPa 0,0 l/m 0,7 km/h N 9,0 C 11,8 C 6,4 km/h
18.10.2016 00:00 11,8 C 83 % 1023,5 hPa 0,0 l/m 0,3 km/h N 9,0 C 11,8 C 5,2 km/h
18.10.2016 01:00 11,9 C 83 % 1023,2 hPa 0,0 l/m 0,7 km/h N 9,2 C 11,9 C 7,2 km/h
18.10.2016 02:00 12,1 C 83 % 1023,0 hPa 0,0 l/m 0,9 km/h N 9,3 C 12,1 C 6,4 km/h
18.10.2016 03:00 11,7 C 83 % 1022,8 hPa 0,0 l/m 1,8 km/h N 8,9 C 11,7 C 9,3 km/h
18.10.2016 04:00 11,1 C 83 % 1022,9 hPa 0,0 l/m 1,6 km/h N 8,3 C 11,1 C 8,9 km/h
18.10.2016 05:00 10,4 C 83 % 1023,0 hPa 0,0 l/m 1,9 km/h N 7,7 C 10,4 C 9,7 km/h
18.10.2016 06:00 9,9 C 83 % 1023,0 hPa 0,0 l/m 1,6 km/h N 7,2 C 9,9 C 8,4 km/h
18.10.2016 07:00 9,4 C 84 % 1023,0 hPa 0,0 l/m 0,5 km/h N 6,8 C 9,4 C 4,8 km/h
18.10.2016 08:00 8,6 C 84 % 1023,6 hPa 0,8 l/m 1,0 km/h N 6,1 C 8,6 C 6,4 km/h
18.10.2016 09:00 8,3 C 84 % 1023,9 hPa 4,4 l/m 0,6 km/h N 5,8 C 8,3 C 5,2 km/h
18.10.2016 10:00 8,2 C 83 % 1024,0 hPa 2,9 l/m 0,3 km/h N 5,5 C 8,2 C 3,6 km/h
18.10.2016 11:00 8,2 C 83 % 1024,1 hPa 0,3 l/m 0,3 km/h N 5,5 C 8,2 C 4,0 km/h
18.10.2016 12:00 8,3 C 84 % 1024,0 hPa 0,3 l/m 0,4 km/h N 5,6 C 8,3 C 4,8 km/h
18.10.2016 13:00 8,4 C 84 % 1023,6 hPa 0,5 l/m 0,3 km/h N 5,7 C 8,4 C 4,8 km/h
18.10.2016 14:00 8,4 C 83 % 1023,3 hPa 0,3 l/m 0,2 km/h N 5,7 C 8,4 C 4,0 km/h
18.10.2016 15:00 8,6 C 83 % 1023,1 hPa 0,0 l/m 0,1 km/h N 5,9 C 8,6 C 3,2 km/h
18.10.2016 16:00 8,6 C 83 % 1022,9 hPa 0,0 l/m 0,1 km/h N 5,9 C 8,6 C 3,6 km/h
18.10.2016 17:00 8,5 C 83 % 1022,9 hPa 0,0 l/m 0,0 km/h N 5,8 C 8,5 C 1,2 km/h
18.10.2016 18:00 8,4 C 83 % 1022,9 hPa 0,0 l/m 0,0 km/h N 5,7 C 8,4 C 0,4 km/h
18.10.2016 19:00 8,4 C 83 % 1022,9 hPa 0,3 l/m 0,1 km/h N 5,7 C 8,4 C 2,0 km/h
18.10.2016 20:00 8,4 C 83 % 1023,0 hPa 0,0 l/m 0,0 km/h N 5,7 C 8,4 C 2,4 km/h
18.10.2016 21:00 8,3 C 83 % 1022,9 hPa 0,0 l/m 0,0 km/h N 5,6 C 8,3 C 1,6 km/h
18.10.2016 22:00 8,3 C 83 % 1022,7 hPa 0,0 l/m 0,1 km/h N 5,6 C 8,3 C 2,0 km/h
18.10.2016 23:00 8,3 C 83 % 1022,3 hPa 0,0 l/m 0,0 km/h N 5,5 C 8,3 C 2,0 km/h
19.10.2016 00:00 8,3 C 83 % 1022,1 hPa 0,0 l/m 0,0 km/h N 5,6 C 8,3 C 1,6 km/h
19.10.2016 01:00 8,4 C 83 % 1021,7 hPa 0,0 l/m 0,0 km/h N 5,7 C 8,4 C 1,6 km/h
19.10.2016 02:00 8,4 C 83 % 1021,4 hPa 0,0 l/m 0,1 km/h N 5,7 C 8,4 C 2,0 km/h
19.10.2016 03:00 8,4 C 83 % 1021,0 hPa 0,0 l/m 0,0 km/h N 5,7 C 8,4 C 0,8 km/h
19.10.2016 04:00 8,4 C 83 % 1020,6 hPa 0,0 l/m 0,0 km/h N 5,7 C 8,4 C 1,2 km/h
19.10.2016 05:00 8,4 C 83 % 1020,2 hPa 0,3 l/m 0,2 km/h N 5,7 C 8,4 C 4,0 km/h
19.10.2016 06:00 8,4 C 83 % 1019,9 hPa 0,0 l/m 0,2 km/h N 5,7 C 8,4 C 3,2 km/h
19.10.2016 07:00 8,5 C 83 % 1019,7 hPa 0,0 l/m 0,4 km/h N 5,8 C 8,5 C 4,4 km/h
19.10.2016 08:00 8,5 C 83 % 1019,7 hPa 0,0 l/m 0,8 km/h N 5,8 C 8,5 C 5,6 km/h
19.10.2016 09:00 8,8 C 83 % 1019,9 hPa 0,0 l/m 0,4 km/h N 6,0 C 8,8 C 5,2 km/h
19.10.2016 10:00 9,1 C 83 % 1019,8 hPa 0,0 l/m 0,8 km/h N 6,3 C 9,1 C 7,2 km/h
19.10.2016 11:00 9,6 C 83 % 1019,9 hPa 0,0 l/m 0,3 km/h N 6,8 C 9,6 C 3,6 km/h
19.10.2016 12:00 10,1 C 83 % 1019,4 hPa 0,0 l/m 0,2 km/h N 7,3 C 10,1 C 3,6 km/h
19.10.2016 13:00 10,6 C 83 % 1019,3 hPa 0,3 l/m 0,2 km/h N 7,8 C 10,6 C 3,6 km/h
19.10.2016 14:00 10,9 C 83 % 1019,0 hPa 0,3 l/m 0,2 km/h N 8,0 C 10,9 C 4,0 km/h
19.10.2016 15:00 11,2 C 82 % 1018,8 hPa 0,0 l/m 0,1 km/h N 8,3 C 11,2 C 3,6 km/h
19.10.2016 16:00 11,2 C 83 % 1018,7 hPa 0,8 l/m 0,2 km/h N 8,4 C 11,2 C 3,6 km/h
19.10.2016 17:00 11,0 C 83 % 1018,6 hPa 0,5 l/m 0,1 km/h N 8,2 C 11,0 C 1,6 km/h
19.10.2016 18:00 10,7 C 83 % 1018,7 hPa 1,0 l/m 0,0 km/h N 8,0 C 10,7 C 0,0 km/h
19.10.2016 19:00 10,4 C 83 % 1018,8 hPa 1,3 l/m 0,0 km/h N 7,7 C 10,4 C 0,8 km/h
19.10.2016 20:00 10,4 C 83 % 1018,7 hPa 2,1 l/m 0,0 km/h N 7,7 C 10,4 C 0,8 km/h
19.10.2016 21:00 10,2 C 83 % 1018,6 hPa 1,6 l/m 0,0 km/h N 7,4 C 10,2 C 0,4 km/h
19.10.2016 22:00 9,8 C 83 % 1018,3 hPa 1,0 l/m 0,0 km/h N 7,0 C 9,8 C 0,4 km/h
19.10.2016 23:00 9,3 C 83 % 1018,0 hPa 1,3 l/m 0,0 km/h N 6,5 C 9,3 C 0,8 km/h
20.10.2016 00:00 8,9 C 85 % 1017,9 hPa 1,3 l/m 0,0 km/h N 6,6 C 8,9 C 0,4 km/h
20.10.2016 01:00 8,9 C 83 % 1017,5 hPa 1,8 l/m 0,0 km/h N 6,2 C 8,9 C 0,0 km/h
20.10.2016 02:00 8,7 C 83 % 1017,1 hPa 1,8 l/m 0,0 km/h N 6,0 C 8,7 C 0,0 km/h
20.10.2016 03:00 8,4 C 83 % 1017,1 hPa 1,6 l/m 0,0 km/h N 5,7 C 8,4 C 0,4 km/h
20.10.2016 04:00 8,2 C 83 % 1016,4 hPa 0,8 l/m 0,0 km/h N 5,5 C 8,2 C 0,0 km/h
20.10.2016 05:00 8,2 C 83 % 1015,8 hPa 0,5 l/m 0,0 km/h N 5,5 C 8,2 C 0,0 km/h
20.10.2016 06:00 8,2 C 83 % 1015,8 hPa 1,3 l/m 0,0 km/h N 5,5 C 8,2 C 0,0 km/h
20.10.2016 07:00 8,2 C 83 % 1016,0 hPa 1,8 l/m 0,0 km/h N 5,5 C 8,2 C 0,0 km/h
20.10.2016 08:00 8,2 C 83 % 1016,2 hPa 1,3 l/m 0,0 km/h N 5,5 C 8,2 C 0,8 km/h
20.10.2016 09:00 8,2 C 83 % 1016,3 hPa 1,0 l/m 0,0 km/h N 5,5 C 8,2 C 1,6 km/h
20.10.2016 10:00 8,3 C 83 % 1016,1 hPa 0,5 l/m 0,5 km/h N 5,5 C 8,3 C 3,6 km/h
20.10.2016 11:00 8,4 C 83 % 1016,0 hPa 0,0 l/m 0,6 km/h N 5,7 C 8,4 C 5,2 km/h
20.10.2016 12:00 8,9 C 83 % 1015,6 hPa 0,0 l/m 2,4 km/h N 6,2 C 8,9 C 10,9 km/h
20.10.2016 13:00 8,9 C 83 % 1015,3 hPa 0,0 l/m 2,2 km/h N 6,2 C 8,9 C 9,6 km/h
20.10.2016 14:00 8,9 C 83 % 1015,3 hPa 0,3 l/m 1,0 km/h N 6,3 C 8,9 C 6,8 km/h
20.10.2016 15:00 8,9 C 84 % 1015,1 hPa 0,0 l/m 1,1 km/h N 6,3 C 8,9 C 7,6 km/h
20.10.2016 16:00 9,1 C 84 % 1015,2 hPa 0,0 l/m 1,0 km/h N 6,4 C 9,1 C 4,4 km/h
20.10.2016 17:00 9,3 C 84 % 1014,8 hPa 0,0 l/m 0,0 km/h N 6,7 C 9,3 C 0,0 km/h
20.10.2016 18:00 8,6 C 84 % 1015,0 hPa 0,0 l/m 0,0 km/h N 6,0 C 8,6 C 0,0 km/h
20.10.2016 19:00 7,9 C 84 % 1015,1 hPa 0,0 l/m 0,0 km/h N 5,4 C 7,9 C 0,0 km/h
20.10.2016 20:00 7,2 C 84 % 1015,0 hPa 0,0 l/m 0,0 km/h N 4,7 C 7,2 C 0,0 km/h
20.10.2016 21:00 5,9 C 84 % 1015,1 hPa 0,0 l/m 0,0 km/h N 3,5 C 5,9 C 0,4 km/h
20.10.2016 22:00 5,1 C 84 % 1015,0 hPa 0,0 l/m 0,0 km/h N 2,6 C 5,1 C 0,0 km/h
20.10.2016 23:00 4,8 C 84 % 1015,1 hPa 0,0 l/m 0,0 km/h N 2,3 C 4,8 C 0,0 km/h
21.10.2016 00:00 4,7 C 84 % 1015,1 hPa 0,0 l/m 0,0 km/h N 2,3 C 4,7 C 0,4 km/h
21.10.2016 01:00 4,8 C 84 % 1015,1 hPa 0,0 l/m 0,0 km/h N 2,3 C 4,8 C 0,8 km/h
21.10.2016 02:00 4,8 C 84 % 1015,1 hPa 0,0 l/m 0,0 km/h N 2,3 C 4,8 C 0,0 km/h
21.10.2016 03:00 4,9 C 84 % 1014,8 hPa 0,0 l/m 0,0 km/h N 2,4 C 4,9 C 0,0 km/h
21.10.2016 04:00 4,5 C 84 % 1014,5 hPa 0,0 l/m 0,0 km/h N 2,0 C 4,5 C 0,0 km/h
21.10.2016 05:00 4,0 C 84 % 1014,3 hPa 0,0 l/m 0,0 km/h N 1,5 C 4,0 C 0,0 km/h
21.10.2016 06:00 4,2 C 84 % 1014,1 hPa 0,0 l/m 0,0 km/h N 1,7 C 4,2 C 1,2 km/h
21.10.2016 07:00 4,5 C 84 % 1014,2 hPa 0,0 l/m 0,0 km/h N 2,0 C 4,5 C 0,8 km/h
21.10.2016 08:00 5,2 C 83 % 1014,3 hPa 0,0 l/m 0,0 km/h N 2,6 C 5,2 C 0,4 km/h
21.10.2016 09:00 6,1 C 83 % 1014,6 hPa 0,0 l/m 0,0 km/h N 3,4 C 6,1 C 0,8 km/h
21.10.2016 10:00 6,7 C 83 % 1014,7 hPa 0,0 l/m 0,0 km/h N 4,0 C 6,7 C 0,8 km/h
21.10.2016 11:00 6,8 C 83 % 1014,5 hPa 0,0 l/m 0,0 km/h N 4,1 C 6,8 C 1,2 km/h
21.10.2016 12:00 7,6 C 83 % 1014,3 hPa 0,0 l/m 0,1 km/h N 4,9 C 7,6 C 2,8 km/h
21.10.2016 13:00 8,6 C 83 % 1013,8 hPa 0,0 l/m 0,0 km/h N 5,9 C 8,6 C 1,6 km/h
21.10.2016 14:00 9,4 C 83 % 1013,6 hPa 0,0 l/m 0,0 km/h N 6,7 C 9,4 C 1,2 km/h
21.10.2016 15:00 10,0 C 83 % 1013,5 hPa 0,0 l/m 0,0 km/h N 7,3 C 10,0 C 1,2 km/h
21.10.2016 16:00 10,4 C 82 % 1013,6 hPa 0,0 l/m 0,0 km/h N 7,4 C 10,4 C 0,4 km/h
21.10.2016 17:00 10,0 C 81 % 1014,0 hPa 0,0 l/m 0,0 km/h N 6,9 C 10,0 C 0,4 km/h
21.10.2016 18:00 8,9 C 82 % 1014,3 hPa 0,0 l/m 0,0 km/h N 5,9 C 8,9 C 0,4 km/h
21.10.2016 19:00 7,0 C 83 % 1014,6 hPa 0,0 l/m 0,0 km/h N 4,3 C 7,0 C 0,0 km/h
21.10.2016 20:00 5,6 C 84 % 1014,6 hPa 0,0 l/m 0,0 km/h N 3,0 C 5,6 C 0,0 km/h
21.10.2016 21:00 5,2 C 84 % 1015,1 hPa 0,0 l/m 0,1 km/h N 2,7 C 5,2 C 2,0 km/h
21.10.2016 22:00 6,7 C 84 % 1015,3 hPa 0,0 l/m 0,2 km/h N 4,1 C 6,7 C 2,8 km/h
21.10.2016 23:00 5,9 C 84 % 1015,8 hPa 0,0 l/m 0,0 km/h N 3,4 C 5,9 C 0,0 km/h
22.10.2016 00:00 6,0 C 84 % 1015,5 hPa 0,0 l/m 1,4 km/h N 3,5 C 6,0 C 6,9 km/h
22.10.2016 01:00 8,2 C 83 % 1015,4 hPa 0,0 l/m 3,5 km/h N 5,5 C 8,2 C 12,9 km/h
22.10.2016 02:00 8,1 C 81 % 1015,5 hPa 0,0 l/m 1,1 km/h N 5,0 C 8,1 C 7,2 km/h
22.10.2016 03:00 7,2 C 81 % 1015,7 hPa 0,0 l/m 0,3 km/h N 4,2 C 7,2 C 5,2 km/h
22.10.2016 04:00 5,7 C 81 % 1015,7 hPa 0,0 l/m 0,0 km/h N 2,7 C 5,7 C 0,0 km/h
22.10.2016 05:00 3,9 C 82 % 1015,9 hPa 0,0 l/m 0,0 km/h N 1,2 C 3,9 C 0,0 km/h
22.10.2016 06:00 2,8 C 84 % 1016,1 hPa 0,0 l/m 0,0 km/h N 0,3 C 2,8 C 0,4 km/h
22.10.2016 07:00 2,4 C 84 % 1016,5 hPa 0,0 l/m 0,0 km/h N -0,0 C 2,4 C 0,0 km/h
22.10.2016 08:00 2,6 C 84 % 1016,9 hPa 0,0 l/m 0,0 km/h N 0,2 C 2,6 C 0,8 km/h
22.10.2016 09:00 4,6 C 84 % 1016,8 hPa 0,0 l/m 0,0 km/h N 2,1 C 4,6 C 0,4 km/h
22.10.2016 10:00 7,6 C 83 % 1016,5 hPa 0,0 l/m 0,0 km/h N 4,9 C 7,6 C 2,4 km/h
22.10.2016 11:00 10,4 C 78 % 1016,4 hPa 0,0 l/m 0,3 km/h N 6,7 C 10,4 C 3,2 km/h
22.10.2016 12:00 12,3 C 68 % 1016,1 hPa 0,0 l/m 1,3 km/h N 6,5 C 12,3 C 6,8 km/h
22.10.2016 13:00 13,5 C 60 % 1015,6 hPa 0,0 l/m 0,4 km/h N 5,8 C 13,5 C 6,0 km/h
22.10.2016 14:00 13,4 C 60 % 1015,2 hPa 0,0 l/m 0,9 km/h N 5,7 C 13,4 C 7,6 km/h
22.10.2016 15:00 13,3 C 62 % 1014,8 hPa 0,0 l/m 0,8 km/h N 6,3 C 13,3 C 6,4 km/h
22.10.2016 16:00 12,3 C 67 % 1014,5 hPa 0,0 l/m 0,3 km/h N 6,3 C 12,3 C 6,4 km/h
22.10.2016 17:00 11,5 C 73 % 1014,4 hPa 0,0 l/m 0,0 km/h N 6,7 C 11,5 C 0,8 km/h
22.10.2016 18:00 9,8 C 76 % 1014,9 hPa 0,0 l/m 0,0 km/h N 5,6 C 9,8 C 0,0 km/h
22.10.2016 19:00 8,3 C 80 % 1015,2 hPa 0,0 l/m 0,0 km/h N 5,0 C 8,3 C 1,2 km/h
22.10.2016 20:00 6,8 C 81 % 1015,6 hPa 0,0 l/m 0,0 km/h N 3,8 C 6,8 C 0,0 km/h
22.10.2016 21:00 5,6 C 83 % 1016,1 hPa 0,0 l/m 0,0 km/h N 2,9 C 5,6 C 0,0 km/h
22.10.2016 22:00 4,3 C 83 % 1016,5 hPa 0,0 l/m 0,0 km/h N 1,7 C 4,3 C 0,4 km/h
22.10.2016 23:00 3,4 C 84 % 1016,3 hPa 0,0 l/m 0,0 km/h N 0,9 C 3,4 C 0,0 km/h
23.10.2016 00:00 2,9 C 84 % 1016,2 hPa 0,0 l/m 0,0 km/h N 0,4 C 2,9 C 0,0 km/h
23.10.2016 01:00 2,0 C 84 % 1016,3 hPa 0,0 l/m 0,0 km/h N -0,4 C 2,0 C 0,0 km/h
23.10.2016 02:00 1,3 C 84 % 1016,4 hPa 0,0 l/m 0,0 km/h N -1,0 C 1,3 C 0,0 km/h
23.10.2016 03:00 1,2 C 84 % 1016,4 hPa 0,0 l/m 0,0 km/h N -1,2 C 1,2 C 0,0 km/h
23.10.2016 04:00 0,8 C 84 % 1016,3 hPa 0,0 l/m 0,0 km/h N -1,6 C 0,8 C 0,0 km/h
23.10.2016 05:00 0,5 C 84 % 1016,4 hPa 0,0 l/m 0,0 km/h N -1,9 C 0,5 C 0,0 km/h
23.10.2016 06:00 1,5 C 84 % 1016,6 hPa 0,0 l/m 0,0 km/h N -0,9 C 1,5 C 0,0 km/h
23.10.2016 07:00 2,9 C 84 % 1016,7 hPa 0,0 l/m 0,0 km/h N 0,4 C 2,9 C 0,0 km/h
23.10.2016 08:00 3,4 C 84 % 1017,0 hPa 0,0 l/m 0,0 km/h N 0,9 C 3,4 C 0,0 km/h
23.10.2016 09:00 4,3 C 83 % 1017,3 hPa 0,0 l/m 0,0 km/h N 1,6 C 4,3 C 0,4 km/h
23.10.2016 10:00 5,0 C 83 % 1017,4 hPa 0,0 l/m 0,0 km/h N 2,4 C 5,0 C 0,0 km/h
23.10.2016 11:00 5,6 C 83 % 1017,4 hPa 0,0 l/m 0,0 km/h N 2,9 C 5,6 C 0,8 km/h
23.10.2016 12:00 6,1 C 83 % 1017,3 hPa 0,0 l/m 0,2 km/h N 3,4 C 6,1 C 3,2 km/h
23.10.2016 13:00 6,8 C 83 % 1017,2 hPa 0,0 l/m 0,9 km/h N 4,1 C 6,8 C 8,1 km/h
23.10.2016 14:00 7,3 C 83 % 1016,7 hPa 0,0 l/m 0,6 km/h N 4,7 C 7,3 C 5,6 km/h
23.10.2016 15:00 8,5 C 83 % 1016,4 hPa 0,0 l/m 0,4 km/h N 5,8 C 8,5 C 4,4 km/h
23.10.2016 16:00 8,9 C 83 % 1016,0 hPa 0,0 l/m 0,1 km/h N 6,2 C 8,9 C 2,0 km/h
23.10.2016 17:00 9,1 C 83 % 1016,0 hPa 0,0 l/m 0,0 km/h N 6,3 C 9,1 C 0,8 km/h
23.10.2016 18:00 7,8 C 84 % 1016,2 hPa 0,0 l/m 0,0 km/h N 5,2 C 7,8 C 0,0 km/h
23.10.2016 19:00 6,2 C 84 % 1016,3 hPa 0,0 l/m 0,0 km/h N 3,7 C 6,2 C 0,0 km/h
23.10.2016 20:00 5,5 C 84 % 1016,5 hPa 0,0 l/m 0,0 km/h N 3,0 C 5,5 C 0,4 km/h
23.10.2016 21:00 8,1 C 83 % 1016,3 hPa 0,0 l/m 0,4 km/h N 5,3 C 8,1 C 3,2 km/h
23.10.2016 22:00 8,0 C 83 % 1016,5 hPa 0,0 l/m 0,0 km/h N 5,3 C 8,0 C 2,0 km/h
23.10.2016 23:00 7,3 C 83 % 1016,5 hPa 0,0 l/m 0,0 km/h N 4,6 C 7,3 C 0,0 km/h
Min-Datum _ 23.10.16 22.10.16 21.10.16 - 17.10.16 - 23.10.16 23.10.16 17.10.16
_ Min-Zeit 05:30 13:30 15:00 - 00:00 - 05:30 05:30 00:00
Minimum _ 0,4 C 58 % 1013,5 hPa - 0,0 km/h - -2,0 C 0,4 C 0,0 km/h
Max-Datum _ 22.10.16 20.10.16 17.10.16 18.10.16 22.10.16 - 18.10.16 22.10.16 20.10.16
_ Max-Zeit 13:30 00:30 10:45 09:30 01:00 - 02:00 13:30 12:00
Maximum _ 13,6 C 87 % 1027,2 hPa 4,4 l/m 5,4 km/h
N
- 9,3 C 13,6 C 16,1 km/h
N
Durchschnitt _ 7,9 C 82 % 1018,7 hPa #34,1 l/m 0,2 km/h N 5,0 C 7,9 C 2,3 km/h